createdAt,value
2019-06-27T00:02:23.501Z,18.20
2019-06-27T00:04:52.168Z,18.10
2019-06-27T00:07:20.763Z,18.00
2019-06-27T00:09:49.171Z,18.10
2019-06-27T00:12:17.171Z,18.20
2019-06-27T00:14:48.705Z,17.90
2019-06-27T00:17:17.183Z,17.90
2019-06-27T00:19:47.278Z,17.80
2019-06-27T00:22:14.727Z,17.60
2019-06-27T00:24:47.679Z,17.60
2019-06-27T00:27:15.794Z,17.70
2019-06-27T00:29:44.453Z,17.70
2019-06-27T00:32:17.315Z,17.70
2019-06-27T00:34:45.667Z,17.70
2019-06-27T00:37:13.839Z,17.50
2019-06-27T00:39:42.812Z,17.60
2019-06-27T00:42:11.224Z,17.60
2019-06-27T00:44:39.863Z,17.60
2019-06-27T00:47:08.607Z,17.50
2019-06-27T00:49:37.135Z,17.70
2019-06-27T00:52:05.675Z,17.60
2019-06-27T00:54:34.111Z,17.60
2019-06-27T00:57:13.659Z,17.50
2019-06-27T00:59:32.323Z,17.70
2019-06-27T01:02:00.941Z,17.40
2019-06-27T01:04:29.325Z,17.30
2019-06-27T01:06:58.076Z,17.40
2019-06-27T01:09:26.419Z,17.40
2019-06-27T01:11:55.339Z,17.30
2019-06-27T01:14:23.487Z,17.20
2019-06-27T01:16:51.505Z,17.20
2019-06-27T01:19:19.843Z,17.30
2019-06-27T01:21:49.559Z,17.20
2019-06-27T01:24:17.935Z,17.00
2019-06-27T01:26:46.619Z,17.00
2019-06-27T01:29:15.058Z,17.00
2019-06-27T01:31:43.140Z,17.00
2019-06-27T01:34:11.668Z,17.00
2019-06-27T01:36:40.384Z,17.00
2019-06-27T01:39:12.475Z,17.00
2019-06-27T01:41:41.203Z,16.90
2019-06-27T01:44:29.276Z,16.80
2019-06-27T01:46:57.419Z,16.90
2019-06-27T01:49:27.844Z,17.00
2019-06-27T01:51:56.670Z,16.90
2019-06-27T01:54:24.836Z,16.90
2019-06-27T01:56:53.624Z,16.90
2019-06-27T01:59:21.176Z,17.00
2019-06-27T02:01:49.310Z,17.00
2019-06-27T02:04:17.610Z,17.00
2019-06-27T02:06:45.768Z,16.90
2019-06-27T02:09:14.187Z,16.90
2019-06-27T02:11:42.427Z,16.80
2019-06-27T02:14:11.119Z,16.80
2019-06-27T02:16:39.695Z,16.80
2019-06-27T02:19:08.217Z,16.90
2019-06-27T02:21:36.210Z,16.70
2019-06-27T02:24:04.790Z,16.80
2019-06-27T02:26:33.372Z,16.90
2019-06-27T02:29:01.559Z,16.90
2019-06-27T02:31:29.626Z,16.70
2019-06-27T02:33:57.905Z,16.80
2019-06-27T02:36:26.547Z,16.70
2019-06-27T02:38:54.908Z,16.80
2019-06-27T02:41:23.408Z,16.80
2019-06-27T02:43:52.016Z,16.80
2019-06-27T02:46:20.433Z,16.80
2019-06-27T02:48:48.953Z,16.90
2019-06-27T02:51:18.929Z,16.90
2019-06-27T02:53:47.403Z,16.90
2019-06-27T02:56:15.595Z,16.90
2019-06-27T02:58:43.758Z,16.80
2019-06-27T03:01:11.996Z,16.90
2019-06-27T03:03:40.539Z,17.00
2019-06-27T03:06:09.074Z,16.70
2019-06-27T03:08:37.172Z,16.80
2019-06-27T03:11:05.272Z,16.70
2019-06-27T03:13:33.880Z,16.70
2019-06-27T03:16:02.272Z,16.70
2019-06-27T03:18:30.734Z,16.70
2019-06-27T03:20:58.890Z,16.60
2019-06-27T03:23:26.822Z,16.60
2019-06-27T03:25:55.080Z,16.70
2019-06-27T03:28:23.734Z,16.80
2019-06-27T03:30:52.150Z,16.80
2019-06-27T03:33:20.905Z,16.60
2019-06-27T03:35:49.435Z,16.50
2019-06-27T03:38:18.172Z,16.50
2019-06-27T03:40:46.339Z,16.60
2019-06-27T03:43:14.919Z,16.50
2019-06-27T03:45:43.634Z,16.60
2019-06-27T03:48:12.198Z,16.70
2019-06-27T03:50:40.444Z,16.50
2019-06-27T03:53:08.846Z,16.40
2019-06-27T03:55:38.740Z,16.40
2019-06-27T03:58:07.802Z,16.60
2019-06-27T04:00:36.014Z,16.70
2019-06-27T04:03:18.713Z,16.80
2019-06-27T04:05:52.401Z,16.80
2019-06-27T04:08:19.955Z,16.70
2019-06-27T04:10:47.607Z,16.80
2019-06-27T04:13:15.987Z,16.70
2019-06-27T04:15:44.728Z,16.80
2019-06-27T04:18:12.903Z,16.90
2019-06-27T04:20:41.763Z,16.80
2019-06-27T04:23:09.871Z,16.70
2019-06-27T04:25:38.661Z,16.60
2019-06-27T04:28:07.076Z,16.50
2019-06-27T04:30:35.840Z,16.50
2019-06-27T04:33:03.869Z,16.50
2019-06-27T04:35:32.389Z,16.60
2019-06-27T04:38:00.883Z,16.60
2019-06-27T04:40:29.438Z,16.70
2019-06-27T04:42:58.057Z,16.90
2019-06-27T04:45:26.659Z,17.00
2019-06-27T04:47:54.825Z,16.90
2019-06-27T04:50:23.259Z,16.90
2019-06-27T04:52:52.064Z,16.80
2019-06-27T04:55:20.119Z,16.90
2019-06-27T04:57:48.512Z,17.00
2019-06-27T05:00:25.231Z,16.90
2019-06-27T05:02:53.359Z,16.90
2019-06-27T05:05:21.514Z,17.10
2019-06-27T05:07:50.227Z,17.00
2019-06-27T05:10:22.044Z,17.00
2019-06-27T05:12:50.741Z,17.10
2019-06-27T05:15:18.639Z,17.20
2019-06-27T05:17:47.123Z,17.20
2019-06-27T05:20:15.551Z,17.30
2019-06-27T05:22:43.994Z,17.40
2019-06-27T05:25:12.589Z,17.50
2019-06-27T05:27:41.491Z,17.50
2019-06-27T05:30:10.750Z,17.50
2019-06-27T05:32:38.802Z,17.50
2019-06-27T05:35:07.247Z,17.50
2019-06-27T05:37:35.230Z,17.50
2019-06-27T05:40:03.620Z,17.60
2019-06-27T05:42:31.886Z,17.50
2019-06-27T05:45:00.302Z,17.50
2019-06-27T05:47:28.218Z,17.50
2019-06-27T05:49:56.390Z,18.40
2019-06-27T05:52:24.299Z,19.40
2019-06-27T05:54:52.934Z,20.10
2019-06-27T05:57:20.941Z,20.30
2019-06-27T05:59:49.218Z,20.30
2019-06-27T06:02:18.006Z,19.90
2019-06-27T06:04:47.782Z,19.50
2019-06-27T06:07:15.722Z,19.30
2019-06-27T06:09:43.830Z,19.20
2019-06-27T06:12:12.093Z,19.40
2019-06-27T06:14:40.974Z,20.00
2019-06-27T06:17:09.674Z,20.60
2019-06-27T06:19:39.403Z,21.20
2019-06-27T06:22:07.937Z,22.30
2019-06-27T06:24:36.069Z,22.30
2019-06-27T06:27:04.543Z,23.60
2019-06-27T06:29:32.952Z,24.50
2019-06-27T06:32:01.100Z,24.30
2019-06-27T06:34:29.231Z,23.50
2019-06-27T06:36:57.646Z,22.70
2019-06-27T06:39:26.157Z,22.10
2019-06-27T06:41:54.285Z,21.60
2019-06-27T06:44:22.242Z,20.90
2019-06-27T06:46:50.524Z,20.30
2019-06-27T06:49:19.484Z,20.60
2019-06-27T06:51:48.486Z,20.40
2019-06-27T06:54:17.191Z,20.40
2019-06-27T06:56:46.006Z,20.60
2019-06-27T06:59:14.158Z,21.20
2019-06-27T07:01:45.504Z,22.90
2019-06-27T07:04:12.694Z,24.50
2019-06-27T07:06:40.931Z,25.60
2019-06-27T07:09:09.431Z,27.20
2019-06-27T07:11:37.818Z,28.20
2019-06-27T07:14:06.819Z,28.40
2019-06-27T07:16:35.034Z,29.10
2019-06-27T07:19:03.160Z,28.60
2019-06-27T07:21:31.530Z,26.70
2019-06-27T07:23:59.929Z,25.50
2019-06-27T07:26:28.095Z,24.30
2019-06-27T07:28:56.292Z,23.30
2019-06-27T07:31:24.558Z,23.20
2019-06-27T07:33:52.714Z,22.60
2019-06-27T07:36:20.903Z,22.20
2019-06-27T07:38:49.377Z,21.50
2019-06-27T07:41:17.907Z,21.30
2019-06-27T07:43:46.692Z,21.40
2019-06-27T07:46:25.237Z,21.50
2019-06-27T07:48:45.502Z,21.70
2019-06-27T07:51:13.985Z,21.90
2019-06-27T07:53:42.268Z,22.30
2019-06-27T07:56:10.482Z,21.80
2019-06-27T07:58:39.702Z,21.50
2019-06-27T08:01:08.138Z,21.00
2019-06-27T08:03:37.030Z,20.80
2019-06-27T08:06:05.370Z,20.80
2019-06-27T08:08:33.483Z,20.40
2019-06-27T08:11:01.818Z,20.40
2019-06-27T08:13:30.039Z,20.50
2019-06-27T08:15:59.010Z,20.50
2019-06-27T08:18:28.469Z,20.40
2019-06-27T08:20:56.915Z,20.20
2019-06-27T08:23:40.447Z,20.50
2019-06-27T08:25:55.354Z,20.70
2019-06-27T08:28:23.801Z,20.40
2019-06-27T08:30:52.035Z,20.20
2019-06-27T08:33:20.304Z,20.20
2019-06-27T08:35:48.709Z,20.20
2019-06-27T08:38:16.931Z,20.40
2019-06-27T08:40:45.240Z,20.50
2019-06-27T08:43:13.392Z,20.60
2019-06-27T08:45:46.548Z,20.60
2019-06-27T08:48:15.090Z,20.60
2019-06-27T08:50:43.323Z,20.40
2019-06-27T08:53:11.822Z,20.50
2019-06-27T08:55:40.363Z,20.40
2019-06-27T08:58:09.050Z,20.70
2019-06-27T09:00:37.219Z,20.80
2019-06-27T09:03:05.364Z,21.00
2019-06-27T09:05:33.813Z,20.80
2019-06-27T09:08:01.801Z,21.10
2019-06-27T09:10:31.357Z,20.90
2019-06-27T09:12:59.262Z,21.10
2019-06-27T09:15:27.364Z,21.10
2019-06-27T09:17:55.291Z,21.20
2019-06-27T09:20:23.521Z,21.10
2019-06-27T09:22:53.443Z,21.20
2019-06-27T09:25:21.555Z,21.30
2019-06-27T09:27:49.443Z,21.30
2019-06-27T09:30:17.778Z,21.40
2019-06-27T09:32:45.861Z,21.40
2019-06-27T09:35:15.815Z,21.40
2019-06-27T09:37:43.793Z,21.60
2019-06-27T09:40:12.215Z,21.60
2019-06-27T09:42:40.111Z,21.50
2019-06-27T09:45:08.818Z,21.60
2019-06-27T09:47:38.110Z,21.70
2019-06-27T09:50:06.486Z,21.70
2019-06-27T09:52:34.491Z,21.80
2019-06-27T09:55:02.665Z,21.70
2019-06-27T09:57:30.910Z,21.60
2019-06-27T09:59:59.044Z,21.70
2019-06-27T10:02:40.951Z,22.00
2019-06-27T10:04:59.261Z,22.10
2019-06-27T10:07:27.307Z,21.90
2019-06-27T10:09:55.324Z,22.00
2019-06-27T10:12:23.223Z,21.80
2019-06-27T10:14:52.061Z,21.70
2019-06-27T10:17:20.236Z,21.80
2019-06-27T10:19:48.264Z,22.10
2019-06-27T10:22:16.405Z,22.20
2019-06-27T10:24:44.453Z,22.60
2019-06-27T10:27:14.625Z,23.10
2019-06-27T10:29:42.529Z,23.60
2019-06-27T10:32:10.691Z,23.70
2019-06-27T10:34:38.585Z,24.50
2019-06-27T10:37:06.491Z,24.70
2019-06-27T10:39:36.773Z,24.90
2019-06-27T10:42:04.702Z,25.00
2019-06-27T10:44:32.601Z,25.10
2019-06-27T10:47:00.542Z,25.50
2019-06-27T10:49:29.076Z,25.90
2019-06-27T10:51:57.139Z,26.20
2019-06-27T10:54:29.338Z,26.40
2019-06-27T10:56:58.355Z,26.30
2019-06-27T10:59:26.484Z,26.70
2019-06-27T11:01:54.738Z,26.60
2019-06-27T11:04:22.650Z,26.50
2019-06-27T11:06:52.954Z,26.40
2019-06-27T11:09:20.838Z,26.30
2019-06-27T11:11:49.299Z,26.20
2019-06-27T11:14:19.219Z,26.00
2019-06-27T11:16:47.452Z,25.90
2019-06-27T11:19:18.971Z,26.30
2019-06-27T11:21:46.912Z,26.80
2019-06-27T11:24:14.875Z,26.80
2019-06-27T11:26:42.997Z,26.80
2019-06-27T11:29:11.060Z,27.00
2019-06-27T11:31:42.043Z,27.00
2019-06-27T11:34:10.313Z,27.00
2019-06-27T11:36:38.723Z,26.90
2019-06-27T11:39:06.829Z,26.90
2019-06-27T11:41:34.818Z,26.90
2019-06-27T11:44:04.847Z,26.70
2019-06-27T11:46:32.852Z,26.50
2019-06-27T11:49:00.815Z,26.50
2019-06-27T11:51:28.740Z,26.50
2019-06-27T11:53:56.668Z,26.70
2019-06-27T11:56:25.313Z,26.40
2019-06-27T11:58:54.233Z,26.70
2019-06-27T12:01:22.222Z,26.70
2019-06-27T12:03:50.387Z,26.60
2019-06-27T12:06:18.406Z,26.60
2019-06-27T12:08:46.459Z,26.40
2019-06-27T12:11:19.124Z,26.50
2019-06-27T12:13:47.280Z,26.70
2019-06-27T12:16:15.352Z,26.40
2019-06-27T12:18:43.248Z,26.50
2019-06-27T12:21:11.316Z,26.40
2019-06-27T12:23:41.233Z,26.30
2019-06-27T12:26:09.238Z,26.30
2019-06-27T12:28:37.330Z,26.30
2019-06-27T12:31:19.289Z,26.30
2019-06-27T12:33:35.059Z,26.40
2019-06-27T12:36:05.381Z,26.50
2019-06-27T12:38:33.864Z,26.60
2019-06-27T12:41:01.928Z,26.50
2019-06-27T12:43:29.978Z,26.70
2019-06-27T12:45:58.149Z,27.00
2019-06-27T12:48:31.099Z,26.90
2019-06-27T12:50:59.628Z,26.90
2019-06-27T12:53:28.022Z,27.00
2019-06-27T12:55:56.437Z,27.20
2019-06-27T12:58:28.801Z,27.10
2019-06-27T13:00:57.529Z,27.10
2019-06-27T13:03:27.235Z,27.10
2019-06-27T13:05:55.635Z,27.30
2019-06-27T13:08:23.518Z,27.30
2019-06-27T13:10:51.781Z,27.40
2019-06-27T13:13:24.128Z,27.50
2019-06-27T13:15:52.511Z,27.40
2019-06-27T13:18:20.895Z,27.20
2019-06-27T13:20:57.877Z,27.40
2019-06-27T13:23:19.879Z,27.50
2019-06-27T13:25:49.566Z,27.40
2019-06-27T13:28:17.549Z,27.30
2019-06-27T13:30:46.095Z,27.10
2019-06-27T13:33:14.666Z,27.10
2019-06-27T13:35:43.890Z,27.10
2019-06-27T13:38:15.587Z,27.40
2019-06-27T13:40:43.739Z,27.70
2019-06-27T13:43:11.874Z,27.70
2019-06-27T13:45:39.781Z,27.50
2019-06-27T13:48:08.359Z,27.40
2019-06-27T13:50:38.629Z,27.30
2019-06-27T13:53:06.874Z,27.40
2019-06-27T13:55:34.969Z,27.10
2019-06-27T13:58:03.299Z,26.90
2019-06-27T14:00:44.279Z,27.00
2019-06-27T14:03:13.128Z,27.40
2019-06-27T14:05:41.350Z,27.20
2019-06-27T14:08:10.456Z,27.20
2019-06-27T14:10:41.246Z,27.10
2019-06-27T14:13:09.783Z,27.30
2019-06-27T14:15:38.074Z,27.20
2019-06-27T14:18:06.212Z,27.30
2019-06-27T14:20:34.639Z,27.20
2019-06-27T14:23:03.139Z,27.20
2019-06-27T14:25:35.598Z,27.00
2019-06-27T14:28:04.505Z,27.00
2019-06-27T14:30:32.871Z,26.90
2019-06-27T14:33:01.207Z,27.00
2019-06-27T14:35:29.760Z,27.20
2019-06-27T14:38:02.511Z,27.00
2019-06-27T14:40:30.414Z,27.10
2019-06-27T14:42:58.585Z,27.00
2019-06-27T14:45:26.821Z,26.90
2019-06-27T14:47:54.825Z,27.00
2019-06-27T14:50:25.487Z,27.20
2019-06-27T14:52:53.632Z,27.00
2019-06-27T14:55:21.821Z,27.10
2019-06-27T14:57:50.493Z,27.10
2019-06-27T15:00:19.381Z,27.50
2019-06-27T15:02:52.123Z,27.20
2019-06-27T15:05:31.973Z,27.10
2019-06-27T15:07:52.418Z,27.10
2019-06-27T15:10:20.767Z,27.00
2019-06-27T15:12:57.342Z,27.00
2019-06-27T15:15:23.570Z,27.40
2019-06-27T15:17:51.727Z,27.60
2019-06-27T15:20:19.971Z,27.30
2019-06-27T15:22:47.931Z,27.50
2019-06-27T15:25:17.260Z,27.50
2019-06-27T15:27:45.409Z,27.30
2019-06-27T15:30:13.563Z,26.90
2019-06-27T15:32:41.722Z,27.00
2019-06-27T15:35:10.050Z,26.90
2019-06-27T15:37:42.121Z,26.90
2019-06-27T15:40:11.076Z,27.10
2019-06-27T15:42:39.666Z,27.00
2019-06-27T15:45:08.442Z,27.00
2019-06-27T15:47:36.783Z,26.90
2019-06-27T15:50:07.998Z,26.80
2019-06-27T15:52:38.324Z,26.90
2019-06-27T15:55:06.383Z,27.00
2019-06-27T15:57:33.843Z,27.00
2019-06-27T16:00:02.323Z,26.70
2019-06-27T16:02:31.851Z,26.80
2019-06-27T16:05:01.138Z,26.80
2019-06-27T16:07:29.490Z,26.90
2019-06-27T16:09:57.830Z,27.00
2019-06-27T16:12:26.547Z,26.70
2019-06-27T16:14:55.114Z,26.60
2019-06-27T16:17:24.073Z,26.60
2019-06-27T16:19:52.000Z,26.40
2019-06-27T16:22:20.511Z,26.20
2019-06-27T16:24:49.043Z,26.30
2019-06-27T16:27:18.090Z,26.30
2019-06-27T16:29:47.078Z,26.10
2019-06-27T16:32:15.901Z,26.10
2019-06-27T16:34:44.047Z,26.00
2019-06-27T16:37:12.185Z,25.90
2019-06-27T16:39:41.633Z,25.70
2019-06-27T16:42:10.310Z,25.90
2019-06-27T16:44:38.750Z,25.80
2019-06-27T16:47:07.039Z,25.80
2019-06-27T16:49:35.468Z,25.80
2019-06-27T16:52:04.032Z,25.80
2019-06-27T16:54:32.463Z,25.80
2019-06-27T16:57:00.503Z,25.80
2019-06-27T16:59:28.947Z,25.70
2019-06-27T17:01:57.020Z,25.70
2019-06-27T17:04:25.200Z,25.60
2019-06-27T17:06:53.182Z,25.50
2019-06-27T17:09:21.087Z,25.70
2019-06-27T17:11:49.194Z,25.70
2019-06-27T17:14:19.263Z,25.80
2019-06-27T17:16:47.175Z,25.90
2019-06-27T17:19:15.139Z,25.60
2019-06-27T17:21:46.327Z,25.70
2019-06-27T17:24:14.430Z,25.40
2019-06-27T17:26:42.343Z,25.40
2019-06-27T17:29:10.532Z,25.50
2019-06-27T17:31:43.368Z,25.40
2019-06-27T17:34:14.103Z,25.30
2019-06-27T17:36:56.332Z,25.10
2019-06-27T17:39:12.003Z,25.00
2019-06-27T17:41:43.858Z,25.00
2019-06-27T17:44:11.844Z,24.90
2019-06-27T17:46:39.744Z,24.80
2019-06-27T17:49:07.828Z,24.70
2019-06-27T17:51:35.982Z,24.60
2019-06-27T17:54:06.338Z,24.40
2019-06-27T17:56:34.247Z,24.40
2019-06-27T17:59:02.255Z,24.40
2019-06-27T18:01:30.462Z,24.10
2019-06-27T18:03:58.612Z,24.00
2019-06-27T18:06:28.310Z,23.80
2019-06-27T18:08:56.444Z,23.80
2019-06-27T18:11:24.357Z,23.80
2019-06-27T18:13:52.303Z,23.90
2019-06-27T18:16:20.207Z,23.90
2019-06-27T18:18:50.651Z,23.80
2019-06-27T18:21:18.632Z,23.70
2019-06-27T18:23:46.815Z,23.60
2019-06-27T18:26:14.839Z,23.50
2019-06-27T18:28:42.845Z,23.50
2019-06-27T18:31:10.970Z,23.40
2019-06-27T18:33:39.240Z,23.10
2019-06-27T18:36:11.162Z,23.10
2019-06-27T18:38:39.163Z,23.00
2019-06-27T18:41:07.175Z,23.00
2019-06-27T18:43:42.229Z,22.80
2019-06-27T18:46:10.679Z,22.80
2019-06-27T18:48:38.741Z,22.80
2019-06-27T18:51:06.828Z,23.00
2019-06-27T18:53:38.417Z,22.90
2019-06-27T18:56:06.599Z,22.90
2019-06-27T18:58:34.897Z,23.10
2019-06-27T19:01:03.086Z,22.90
2019-06-27T19:03:31.097Z,22.70
2019-06-27T19:06:00.508Z,22.50
2019-06-27T19:08:28.643Z,22.30
2019-06-27T19:10:57.810Z,22.20
2019-06-27T19:13:26.418Z,22.20
2019-06-27T19:15:54.631Z,22.10
2019-06-27T19:18:41.326Z,22.10
2019-06-27T19:21:12.438Z,21.80
2019-06-27T19:23:55.695Z,21.70
2019-06-27T19:26:23.838Z,21.60
2019-06-27T19:28:52.245Z,21.70
2019-06-27T19:31:20.346Z,21.50
2019-06-27T19:33:48.497Z,21.50
2019-06-27T19:36:16.734Z,21.40
2019-06-27T19:38:44.999Z,21.30
2019-06-27T19:41:14.385Z,21.20
2019-06-27T19:43:42.462Z,21.20
2019-06-27T19:46:10.715Z,21.10
2019-06-27T19:48:40.557Z,21.10
2019-06-27T19:51:11.919Z,21.00
2019-06-27T19:53:41.318Z,20.80
2019-06-27T19:56:09.729Z,20.80
2019-06-27T19:58:39.151Z,20.60
2019-06-27T20:01:07.240Z,20.60
2019-06-27T20:03:35.840Z,20.70
2019-06-27T20:06:03.887Z,20.60
2019-06-27T20:08:32.995Z,20.40
2019-06-27T20:11:01.630Z,20.40
2019-06-27T20:13:30.018Z,20.40
2019-06-27T20:16:19.548Z,20.20
2019-06-27T20:18:47.783Z,20.20
2019-06-27T20:21:15.550Z,20.10
2019-06-27T20:23:42.823Z,20.00
2019-06-27T20:26:10.301Z,20.00
2019-06-27T20:28:41.080Z,20.00
2019-06-27T20:31:08.339Z,20.00
2019-06-27T20:33:35.292Z,19.90
2019-06-27T20:36:05.847Z,19.90
2019-06-27T20:38:35.226Z,19.80
2019-06-27T20:41:01.896Z,19.80
2019-06-27T20:43:28.930Z,19.90
2019-06-27T20:45:55.842Z,19.70
2019-06-27T20:48:22.924Z,19.70
2019-06-27T20:50:50.359Z,19.60
2019-06-27T20:53:18.298Z,19.50
2019-06-27T20:55:45.252Z,19.50
2019-06-27T20:58:12.858Z,19.50
2019-06-27T21:00:40.026Z,19.40
2019-06-27T21:03:08.612Z,19.50
2019-06-27T21:05:36.899Z,19.30
2019-06-27T21:08:05.062Z,19.30
2019-06-27T21:10:33.118Z,19.20
2019-06-27T21:13:01.083Z,19.10
2019-06-27T21:15:29.387Z,19.00
2019-06-27T21:17:57.739Z,18.90
2019-06-27T21:20:26.107Z,18.90
2019-06-27T21:22:54.367Z,18.90
2019-06-27T21:25:22.706Z,18.90
2019-06-27T21:27:51.089Z,18.90
2019-06-27T21:30:19.432Z,18.80
2019-06-27T21:32:48.460Z,18.70
2019-06-27T21:35:17.316Z,18.70
2019-06-27T21:37:45.334Z,18.80
2019-06-27T21:40:13.718Z,18.80
2019-06-27T21:42:42.279Z,18.80
2019-06-27T21:45:11.098Z,18.70
2019-06-27T21:47:39.189Z,18.80
2019-06-27T21:50:07.781Z,18.40
2019-06-27T21:52:35.667Z,18.30
2019-06-27T21:55:07.084Z,18.20
2019-06-27T21:57:35.844Z,18.10
2019-06-27T22:00:05.972Z,18.10
2019-06-27T22:02:34.932Z,18.10
2019-06-27T22:05:04.696Z,17.90
2019-06-27T22:07:33.340Z,17.90
2019-06-27T22:10:03.917Z,17.90
2019-06-27T22:12:34.366Z,17.80
2019-06-27T22:15:03.550Z,17.70
2019-06-27T22:17:31.524Z,17.70
2019-06-27T22:20:14.099Z,17.60
2019-06-27T22:22:29.659Z,17.50
2019-06-27T22:24:57.560Z,17.50
2019-06-27T22:27:25.767Z,17.40
2019-06-27T22:29:54.037Z,17.30
2019-06-27T22:32:21.942Z,17.20
2019-06-27T22:34:50.091Z,17.20
2019-06-27T22:37:23.893Z,17.10
2019-06-27T22:40:11.378Z,17.00
2019-06-27T22:42:58.004Z,17.00
2019-06-27T22:45:44.611Z,16.90
2019-06-27T22:48:13.054Z,16.90
2019-06-27T22:51:12.382Z,16.80
2019-06-27T22:53:49.170Z,16.80
2019-06-27T22:56:16.165Z,16.80
2019-06-27T22:58:43.307Z,16.70
2019-06-27T23:01:10.295Z,16.70
2019-06-27T23:03:38.275Z,16.80
2019-06-27T23:06:06.313Z,16.60
2019-06-27T23:08:34.310Z,16.50
2019-06-27T23:11:02.336Z,16.50
2019-06-27T23:13:30.307Z,16.50
2019-06-27T23:15:58.499Z,16.50
2019-06-27T23:18:27.486Z,16.50
2019-06-27T23:20:55.907Z,16.40
2019-06-27T23:23:24.179Z,16.30
2019-06-27T23:25:52.380Z,16.30
2019-06-27T23:28:20.351Z,16.30
2019-06-27T23:30:48.574Z,16.20
2019-06-27T23:33:16.821Z,16.30
2019-06-27T23:35:45.407Z,16.20
2019-06-27T23:38:13.419Z,16.20
2019-06-27T23:40:41.606Z,16.20
2019-06-27T23:43:09.997Z,16.30
2019-06-27T23:45:38.616Z,16.30
2019-06-27T23:48:07.442Z,16.10
2019-06-27T23:50:35.422Z,16.00
2019-06-27T23:53:07.261Z,16.00
2019-06-27T23:55:34.429Z,16.10
2019-06-27T23:58:02.326Z,16.10
